Avon, CO (81620)

5:07 PM MDT en Octubre 24, 2014 (GMT -0600)
Whiskey Hill, EagleVail | Change Station
CLOSE
Current Station
Estación meteorológica personal
Location: Avon, CO
Altura: 7959 ft
Estaciones meteorológicas cercanas

Alt 7959 ft 39.61 °N, 106.48 °W | Updated 7 minutes ago

Despejado
Despejado
62.8 ° F
Sensación térmica 62.8 ° F
N
5.4
Viento Variable Viento desde ONO
Gusts 11.0 mph

Hoy
Alta -- | Baja -- ° F
--% Posibilidad de precipitaciones
Ayer
Alta -- | Baja -- ° F
Precip. -- pul
7:25 AM 6:14 PM
Luna nueva, 1% visible
Presión 30.31 pul
Visibilidad 10.0 Millas
Nubes Despejado
Punto de rocío 16 ° F
Humedad 16%
Precipitaciones 0.00 pul
Espesor de la nieve 14 in , 0 in
UV 1 de una escala de 12
Polen 3.20 de una escala de 12
Calidad del aire No disponible.
Flu Activity Sporadic
METAR KEGE 242250Z 25011KT 10SM SKC 22/M04 A3031

More Conditions Fewer Conditions

Presión 30.31 pul
Visibilidad 10.0 Millas
Nubes Despejado
Punto de rocío 16 ° F
Humedad 16%
Precipitaciones 0.00 pul
Espesor de la nieve 14 in , 0 in
UV 1 de una escala de 12
Polen 3.20 de una escala de 12
Calidad del aire No disponible.
Flu Activity Sporadic
METAR KEGE 242250Z 25011KT 10SM SKC 22/M04 A3031

More Conditions Fewer Conditions

10-Day Weather Forecast

Almanac

Astronomía

Oct. 24, 2014 Salida Puesta
Hora real 7:25 AM MDT 6:14 PM MDT
Crepúsculo civil 6:58 AM MDT 6:41 PM MDT
Crepúsculo náutico 6:26 AM MDT 7:13 PM MDT
Crepúsculo astronómico 5:55 AM MDT 7:44 PM MDT
Luna 8:07 AM MDT 6:56 PM MDT
Horas de luz 11h 43m
Horas de luz
10h 48m
Tomorrow will be 2m 24s shorter.
Luna nueva, 1% of the Moon is Illuminated
Hoy
Luna nueva
Oct 30
Cuarto creciente
Nov 6
Luna llena
Nov 14
Cuarto menguante
Nov 22
Nueva

Extremos de hoy

Máximos del estado Bajos del estado

Community

WunderPhotos

Upload Photos

1,764,705 ¡fotos cargadas!

Nearby

Grosos de nieve

Estación Profundido Altura
Mccoy Park 14 in 9480 ft
Beaver Creek Village 0 in 8500 ft
Kiln 0 in 9600 ft
Ivanhoe 0 in 10400 ft
Fremont Pass 0 in 11400 ft

Actividad de terremotos

Ciudad Distance Mag. Tiempo y dato
No hay informes recientes de la actividad sísmica.
Magnitud mínima muestra es 2,5.

Temperaturas de aguas costeras

Lugar Temperatura
Sin partes meteorológicos de las estaciones

Estaciones meteorológicas cercanas